Delmont, South Dakota
Current Conditions -  °F | °C
As of 3:53 AM on Thursday 18 Dec 2014 (Local Time) from KMHE Reporting Station
Overcast Overcast  
Wind Chill: 12°   Ceiling: 6500
Heat Index: 20°   Visibility: 10mi
Dew Point: 16°   Wind: 6mph
Humidity: 85%   Direction: 130°SE
Pressure: 30.21"   Gusts: NA
Location:  43.27°N, 98.16°W
Report Text: KMHE 180953Z AUTO 13005KT 10SM OVC065 M07/M09 A3021 RMK AO2 SLP254 T10671089
Loading
Personal Weather Stations






























Interactive Weather Map New forecast layout! Learn more

10-Day Weather Forecast

Advertisements
Track Severe Weather on mobile